Terminal Aerodrome Forecast
Issued by NWS

Home | Current Version | Previous Version | Text Only | Print | Product List | Glossary On
Versions: 1 2 3 4 5 6 7 8 9 10 11
000
FTUS41 KPBZ 281300 AAA
TAFBVI
TAF AMD
KBVI 281324Z 2813/2912 30008KT 2SM -DZ BR BKN008 OVC012
      TEMPO 2813/2815 4SM -SHRASN BKN006
     FM281600 30006KT P6SM BKN025
     FM282100 32005KT P6SM BKN035=

USA.gov is the U.S. government's official web portal to all federal, state and local government web resources and services.